الصفحة الرئيسية
METAR-TAF:

METAR-TAF

مطار :

مطار منيابولس-سنت بول الدولي

مينيابولس, مينيسوتا, الولايات المتحدة

دائرة عرض: 44-52-59N, خط طول: 093-13-44W, ارتفاع: 256 متر

مراقبة الطقس الحالي

تاريخ ووقت الإصدار 1ساعة و 11 دقيقة قبل الساعة 18:53UTC
ريح 7 عقدة من الشمال الغربي
درجة الحرارة -3°درجة مئوية
الرطوبة 50%
ضغط 1031 hPa
الرؤية: 16.1 كم
غيوم متفرقة على ارتفاع 3100 قدم

METAR: KMSP 171853Z 32007KT 10SM SCT031 M03/M12 A3044 RMK AO2 SLP320 T10331117

زمن: 14:04 (20:04 UTC)

توقعات

تاريخ ووقت الإصدار 2ساعات و 37 دقيقة قبل الساعة 17:27UTC
التوقعات صالحة من17 الساعة 18 UTC إلى 18 الساعة 24 UTC
ريح 10 عقدة من الشمال/الشمال الشرقي
الرؤية: 10 كم
غيوم متفرقة على ارتفاع 3000 قدم
من 17 الساعة 2000 UTC
ريح 6 عقدة من الشمال
الرؤية: 10 كم
غيوم متفرقة على ارتفاع 10000 قدم
من 17 الساعة 2200 UTC
ريح 5 عقدة من الشمال الغربي
الرؤية: 10 كم
غيوم قليلة على ارتفاع 20000 قدم
من 18 الساعة 1200 UTC
ريح 5 عقدة من الجنوب الغربي
الرؤية: 10 كم
سماء صافية

TAF: KMSP 171727Z 1718/1824 03010KT P6SM SCT030 FM172000 35006KT P6SM SCT100 FM172200 32005KT P6SM FEW200 FM181200 23005KT P6SM SKC

أرصاد الطقس والتوقعات من أكثر من 4000 مطار (تقارير الطقس للمطار METAR والتنبؤ بالطقس بالمطارTAF).

المحطات المتاحة هي النقط الصفراء والحمراء على الخريطة.

حرك المؤشر فوق النقطة لمعرفة اسم المحطة.

ثم انقر لمعرفة أرصاد وتوقعات الطقس.

لتغيير الخارطة: اضغط على الأزرار الخضراء مع رمز الصليب الأسود للتكبير. على الزر الأخضر مع شرطة للتصغير، أو على الأسهم الخضراء للخرائط المجاورة.


METAR-TAF: